Terminal Aerodrome Forecast
Issued by NWS

Home | Current Version | Previous Version | Text Only | Print | Product List | Glossary On
Versions: 1 2 3 4 5 6 7 8 9 10 11 12 13 14 15 16 17 18 19 20 21
000
FTUS43 KMQT 260525
TAFSAW
TAF
KSAW 260525Z 2606/2706 VRB03KT P6SM BKN250
     FM261200 18007KT P6SM BKN050
     FM261600 18010KT 6SM -SN SCT025 OVC045
     FM261800 18012KT 3SM -SN OVC012
     FM262300 16008KT 2SM -SN BR OVC012=

USA.gov is the U.S. government's official web portal to all federal, state and local government web resources and services.